createdAt,value
2023-01-17T00:04:41.996Z,100.0
2023-01-17T00:09:41.998Z,100.0
2023-01-17T00:14:41.987Z,100.0
2023-01-17T00:19:42.018Z,100.0
2023-01-17T00:24:42.001Z,100.0
2023-01-17T00:29:42.008Z,100.0
2023-01-17T00:34:42.001Z,100.0
2023-01-17T00:39:42.010Z,100.0
2023-01-17T00:44:42.001Z,100.0
2023-01-17T00:49:42.025Z,100.0
2023-01-17T00:54:42.019Z,100.0
2023-01-17T00:59:42.028Z,100.0
2023-01-17T01:04:42.019Z,100.0
2023-01-17T01:09:42.012Z,100.0
2023-01-17T01:14:42.024Z,100.0
2023-01-17T01:19:42.051Z,100.0
2023-01-17T01:24:42.027Z,100.0
2023-01-17T01:29:42.034Z,100.0
2023-01-17T01:34:42.028Z,100.0
2023-01-17T01:39:42.039Z,100.0
2023-01-17T01:44:42.040Z,100.0
2023-01-17T01:49:42.065Z,100.0
2023-01-17T01:54:42.046Z,100.0
2023-01-17T01:59:42.095Z,100.0
2023-01-17T02:04:42.051Z,100.0
2023-01-17T02:09:42.062Z,100.0
2023-01-17T02:14:42.063Z,100.0
2023-01-17T02:19:42.096Z,100.0
2023-01-17T02:24:42.092Z,100.0
2023-01-17T02:29:42.126Z,100.0
2023-01-17T02:34:42.068Z,100.0
2023-01-17T02:39:42.076Z,100.0
2023-01-17T02:44:42.080Z,100.0
2023-01-17T02:49:42.093Z,100.0
2023-01-17T02:54:42.085Z,100.0
2023-01-17T02:59:42.080Z,100.0
2023-01-17T03:04:42.101Z,100.0
2023-01-17T03:09:42.088Z,100.0
2023-01-17T03:14:42.119Z,100.0
2023-01-17T03:19:42.130Z,100.0
2023-01-17T03:24:42.107Z,100.0
2023-01-17T03:29:42.116Z,100.0
2023-01-17T03:34:42.117Z,100.0
2023-01-17T03:39:42.099Z,100.0
2023-01-17T03:44:42.109Z,100.0
2023-01-17T03:49:42.136Z,100.0
2023-01-17T03:54:42.111Z,100.0
2023-01-17T03:59:42.115Z,100.0
2023-01-17T04:04:42.185Z,100.0
2023-01-17T04:09:42.113Z,100.0
2023-01-17T04:14:42.124Z,100.0
2023-01-17T04:19:42.148Z,100.0
2023-01-17T04:24:42.132Z,100.0
2023-01-17T04:29:42.137Z,100.0
2023-01-17T04:34:42.172Z,100.0
2023-01-17T04:39:42.136Z,100.0
2023-01-17T04:44:42.137Z,100.0
2023-01-17T04:49:44.033Z,100.0
2023-01-17T04:54:42.140Z,100.0
2023-01-17T04:59:42.143Z,100.0
2023-01-17T05:04:42.191Z,100.0
2023-01-17T05:09:42.151Z,100.0
2023-01-17T05:14:42.158Z,100.0
2023-01-17T05:19:42.167Z,100.0
2023-01-17T05:24:42.167Z,100.0
2023-01-17T05:29:42.172Z,100.0
2023-01-17T05:34:42.170Z,100.0
2023-01-17T05:39:42.175Z,100.0
2023-01-17T05:44:42.194Z,100.0
2023-01-17T05:49:44.440Z,100.0
2023-01-17T05:54:42.181Z,100.0
2023-01-17T05:59:42.172Z,100.0
2023-01-17T06:04:42.317Z,100.0
2023-01-17T06:09:42.185Z,100.0
2023-01-17T06:14:42.181Z,100.0
2023-01-17T06:19:42.222Z,100.0
2023-01-17T06:24:42.190Z,100.0
2023-01-17T06:29:42.200Z,100.0
2023-01-17T06:34:42.198Z,100.0
2023-01-17T06:39:42.201Z,100.0
2023-01-17T06:44:42.203Z,100.0
2023-01-17T06:49:42.222Z,100.0
2023-01-17T06:54:42.213Z,100.0
2023-01-17T06:59:42.214Z,100.0
2023-01-17T07:04:42.215Z,100.0
2023-01-17T07:09:42.214Z,100.0
2023-01-17T07:14:42.220Z,100.0
2023-01-17T07:19:42.230Z,100.0
2023-01-17T07:24:42.217Z,100.0
2023-01-17T07:29:42.221Z,100.0
2023-01-17T07:34:42.245Z,100.0
2023-01-17T07:39:42.243Z,100.0
2023-01-17T07:44:42.233Z,100.0
2023-01-17T07:49:42.259Z,100.0
2023-01-17T07:54:42.238Z,100.0
2023-01-17T07:59:42.239Z,100.0
2023-01-17T08:04:42.262Z,100.0
2023-01-17T08:09:42.269Z,100.0
2023-01-17T08:14:42.248Z,100.0
2023-01-17T08:19:42.265Z,100.0
2023-01-17T08:24:42.278Z,100.0
2023-01-17T08:29:42.265Z,100.0
2023-01-17T08:34:42.280Z,100.0
2023-01-17T08:39:42.274Z,100.0
2023-01-17T08:44:42.270Z,100.0
2023-01-17T08:49:42.289Z,100.0
2023-01-17T08:54:42.274Z,100.0
2023-01-17T08:59:42.270Z,100.0
2023-01-17T09:04:42.344Z,100.0
2023-01-17T09:09:42.272Z,100.0
2023-01-17T09:14:42.331Z,100.0
2023-01-17T09:19:42.447Z,100.0
2023-01-17T09:24:42.291Z,100.0
2023-01-17T09:29:42.300Z,100.0
2023-01-17T09:34:42.295Z,100.0
2023-01-17T09:39:42.292Z,100.0
2023-01-17T09:44:42.314Z,100.0
2023-01-17T09:49:42.318Z,100.0
2023-01-17T09:54:42.319Z,100.0
2023-01-17T09:59:45.397Z,100.0
2023-01-17T10:04:42.325Z,100.0
2023-01-17T10:09:42.311Z,100.0
2023-01-17T10:14:42.312Z,100.0
2023-01-17T10:19:42.338Z,100.0
2023-01-17T10:24:42.319Z,100.0
2023-01-17T10:29:42.319Z,100.0
2023-01-17T10:34:42.320Z,100.0
2023-01-17T10:39:42.336Z,100.0
2023-01-17T10:44:42.367Z,100.0
2023-01-17T10:49:42.346Z,100.0
2023-01-17T10:54:42.343Z,100.0
2023-01-17T10:59:42.335Z,100.0
2023-01-17T11:04:42.347Z,100.0
2023-01-17T11:09:42.352Z,100.0
2023-01-17T11:14:42.344Z,100.0
2023-01-17T11:19:42.368Z,100.0
2023-01-17T11:24:42.342Z,100.0
2023-01-17T11:29:42.370Z,100.0
2023-01-17T11:34:42.369Z,100.0
2023-01-17T11:39:43.635Z,99.7
2023-01-17T11:44:42.367Z,99.7
2023-01-17T11:49:42.402Z,99.7
2023-01-17T11:54:42.408Z,99.4
2023-01-17T11:59:42.368Z,99.1
2023-01-17T12:04:42.431Z,99.2
2023-01-17T12:09:42.367Z,99.1
2023-01-17T12:14:42.380Z,98.8
2023-01-17T12:19:42.399Z,98.3
2023-01-17T12:24:42.383Z,98.0
2023-01-17T12:29:42.383Z,97.6
2023-01-17T12:34:42.394Z,97.6
2023-01-17T12:39:42.394Z,97.1
2023-01-17T12:44:42.388Z,96.9
2023-01-17T12:49:42.413Z,96.2
2023-01-17T12:54:42.409Z,95.7
2023-01-17T12:59:42.392Z,95.2
2023-01-17T13:04:57.778Z,94.7
2023-01-17T13:09:42.403Z,94.7
2023-01-17T13:14:42.404Z,94.4
2023-01-17T13:19:42.510Z,93.2
2023-01-17T13:24:42.438Z,93.2
2023-01-17T13:29:42.412Z,93.2
2023-01-17T13:34:42.425Z,93.4
2023-01-17T13:39:42.427Z,93.3
2023-01-17T13:44:42.420Z,92.5
2023-01-17T13:49:42.443Z,92.1
2023-01-17T13:54:42.435Z,91.7
2023-01-17T13:59:42.428Z,91.1
2023-01-17T14:04:42.448Z,90.9
2023-01-17T14:09:42.464Z,90.9
2023-01-17T14:14:42.441Z,89.9
2023-01-17T14:19:42.475Z,89.4
2023-01-17T14:24:42.439Z,89.3
2023-01-17T14:29:42.460Z,88.6
2023-01-17T14:34:42.459Z,88.0
2023-01-17T14:39:42.454Z,87.7
2023-01-17T14:44:42.456Z,88.3
2023-01-17T14:49:42.480Z,88.3
2023-01-17T14:54:42.460Z,88.5
2023-01-17T14:59:42.459Z,88.0
2023-01-17T15:04:42.471Z,88.8
2023-01-17T15:09:42.476Z,88.5
2023-01-17T15:14:42.474Z,88.7
2023-01-17T15:19:42.490Z,88.8
2023-01-17T15:24:42.475Z,88.9
2023-01-17T15:29:42.473Z,89.7
2023-01-17T15:34:42.503Z,90.2
2023-01-17T15:39:42.484Z,90.8
2023-01-17T15:44:48.622Z,90.9
2023-01-17T15:49:42.513Z,91.9
2023-01-17T15:54:42.497Z,92.5
2023-01-17T15:59:42.498Z,92.7
2023-01-17T16:04:42.510Z,93.0
2023-01-17T16:09:42.503Z,93.4
2023-01-17T16:15:02.499Z,93.3
2023-01-17T16:19:42.516Z,93.6
2023-01-17T16:24:42.503Z,93.8
2023-01-17T16:29:42.514Z,93.7
2023-01-17T16:34:42.519Z,93.9
2023-01-17T16:39:42.532Z,94.1
2023-01-17T16:44:42.517Z,94.2
2023-01-17T16:49:42.550Z,94.3
2023-01-17T16:54:42.530Z,94.5
2023-01-17T16:59:50.352Z,94.7
2023-01-17T17:04:42.541Z,94.9
2023-01-17T17:09:42.527Z,95.1
2023-01-17T17:14:42.541Z,95.5
2023-01-17T17:19:42.556Z,95.6
2023-01-17T17:24:42.535Z,95.8
2023-01-17T17:29:42.543Z,96.0
2023-01-17T17:34:42.554Z,96.1
2023-01-17T17:39:42.544Z,96.3
2023-01-17T17:44:42.558Z,96.8
2023-01-17T17:49:42.575Z,96.9
2023-01-17T17:54:42.548Z,97.0
2023-01-17T17:59:42.557Z,97.1
2023-01-17T18:04:42.684Z,97.1
2023-01-17T18:09:42.562Z,97.0
2023-01-17T18:14:42.565Z,97.3
2023-01-17T18:19:42.616Z,97.6
2023-01-17T18:24:42.571Z,97.8
2023-01-17T18:29:42.579Z,97.8
2023-01-17T18:34:42.585Z,97.8
2023-01-17T18:39:42.574Z,97.7
2023-01-17T18:44:42.593Z,97.9
2023-01-17T18:49:42.608Z,98.1
2023-01-17T18:54:42.595Z,98.3
2023-01-17T18:59:42.586Z,98.3
2023-01-17T19:04:42.603Z,97.8
2023-01-17T19:09:42.593Z,97.7
2023-01-17T19:14:42.595Z,97.6
2023-01-17T19:19:42.616Z,97.5
2023-01-17T19:24:42.606Z,97.6
2023-01-17T19:29:42.610Z,97.4
2023-01-17T19:34:42.649Z,97.4
2023-01-17T19:39:42.614Z,97.4
2023-01-17T19:44:42.616Z,97.5
2023-01-17T19:49:42.647Z,97.6
2023-01-17T19:54:42.623Z,97.4
2023-01-17T19:59:42.622Z,97.4
2023-01-17T20:04:42.630Z,97.5
2023-01-17T20:09:42.652Z,97.7
2023-01-17T20:14:42.628Z,97.7
2023-01-17T20:19:42.682Z,97.7
2023-01-17T20:24:42.627Z,97.6
2023-01-17T20:29:42.640Z,97.7
2023-01-17T20:34:45.343Z,97.8
2023-01-17T20:39:42.652Z,97.9
2023-01-17T20:44:42.650Z,97.9
2023-01-17T20:49:42.706Z,98.0
2023-01-17T20:54:42.661Z,97.8
2023-01-17T20:59:42.650Z,97.6
2023-01-17T21:04:42.657Z,97.3
2023-01-17T21:09:42.654Z,97.1
2023-01-17T21:14:42.675Z,97.0
2023-01-17T21:19:42.684Z,96.8
2023-01-17T21:24:42.668Z,96.6
2023-01-17T21:29:42.673Z,96.5
2023-01-17T21:34:42.678Z,96.4
2023-01-17T21:39:42.677Z,96.3
2023-01-17T21:44:42.673Z,96.2
2023-01-17T21:49:42.704Z,95.9
2023-01-17T21:54:42.683Z,96.1
2023-01-17T21:59:42.678Z,96.3
2023-01-17T22:04:42.695Z,96.3
2023-01-17T22:09:42.693Z,96.1
2023-01-17T22:14:42.701Z,96.1
2023-01-17T22:19:42.716Z,96.2
2023-01-17T22:24:42.695Z,96.1
2023-01-17T22:29:42.707Z,96.2
2023-01-17T22:34:42.709Z,96.4
2023-01-17T22:39:42.706Z,96.6
2023-01-17T22:44:42.705Z,96.8
2023-01-17T22:49:42.736Z,96.9
2023-01-17T22:54:42.713Z,97.0
2023-01-17T22:59:42.729Z,97.0
2023-01-17T23:04:42.731Z,97.0
2023-01-17T23:09:42.723Z,97.1
2023-01-17T23:14:42.729Z,97.1
2023-01-17T23:19:42.802Z,97.0
2023-01-17T23:24:42.723Z,97.0
2023-01-17T23:29:42.731Z,96.9
2023-01-17T23:34:42.741Z,96.8
2023-01-17T23:39:42.739Z,96.9
2023-01-17T23:44:42.750Z,96.7
2023-01-17T23:49:42.817Z,96.4
2023-01-17T23:54:42.750Z,96.0
2023-01-17T23:59:42.742Z,96.0
